sensor_id;sensor_type;location;lat;lon;timestamp;P1;durP1;ratioP1;P2;durP2;ratioP2
19191;SDS011;9728;48.194;16.346;2023-12-28T00:04:12;5.53;;;3.92;;
19191;SDS011;9728;48.194;16.346;2023-12-28T00:09:16;5.38;;;4.20;;
19191;SDS011;9728;48.194;16.346;2023-12-28T00:14:19;6.78;;;4.28;;
19191;SDS011;9728;48.194;16.346;2023-12-28T00:19:24;4.78;;;3.35;;
19191;SDS011;9728;48.194;16.346;2023-12-28T00:24:28;4.95;;;4.20;;
19191;SDS011;9728;48.194;16.346;2023-12-28T00:29:31;5.70;;;4.00;;
19191;SDS011;9728;48.194;16.346;2023-12-28T00:34:38;6.07;;;3.55;;
19191;SDS011;9728;48.194;16.346;2023-12-28T00:39:42;5.65;;;3.78;;
19191;SDS011;9728;48.194;16.346;2023-12-28T00:44:46;6.27;;;3.97;;
19191;SDS011;9728;48.194;16.346;2023-12-28T00:49:51;6.07;;;4.10;;
19191;SDS011;9728;48.194;16.346;2023-12-28T00:54:55;5.53;;;3.80;;
19191;SDS011;9728;48.194;16.346;2023-12-28T00:59:58;6.05;;;4.13;;
19191;SDS011;9728;48.194;16.346;2023-12-28T01:05:03;6.20;;;4.72;;
19191;SDS011;9728;48.194;16.346;2023-12-28T01:10:07;5.87;;;4.00;;
19191;SDS011;9728;48.194;16.346;2023-12-28T01:15:10;4.67;;;3.40;;
19191;SDS011;9728;48.194;16.346;2023-12-28T01:20:15;5.10;;;3.63;;
19191;SDS011;9728;48.194;16.346;2023-12-28T01:25:18;6.13;;;4.38;;
19191;SDS011;9728;48.194;16.346;2023-12-28T01:30:22;6.60;;;4.43;;
19191;SDS011;9728;48.194;16.346;2023-12-28T01:35:27;8.50;;;4.70;;
19191;SDS011;9728;48.194;16.346;2023-12-28T01:40:30;6.60;;;4.00;;
19191;SDS011;9728;48.194;16.346;2023-12-28T01:45:33;5.40;;;3.50;;
19191;SDS011;9728;48.194;16.346;2023-12-28T01:50:38;6.53;;;4.53;;
19191;SDS011;9728;48.194;16.346;2023-12-28T01:55:42;6.20;;;4.23;;
19191;SDS011;9728;48.194;16.346;2023-12-28T02:00:46;6.60;;;3.87;;
19191;SDS011;9728;48.194;16.346;2023-12-28T02:05:51;5.20;;;3.63;;
19191;SDS011;9728;48.194;16.346;2023-12-28T02:10:55;7.57;;;4.27;;
19191;SDS011;9728;48.194;16.346;2023-12-28T02:15:59;5.47;;;4.05;;
19191;SDS011;9728;48.194;16.346;2023-12-28T02:21:07;8.03;;;5.03;;
19191;SDS011;9728;48.194;16.346;2023-12-28T02:26:13;7.82;;;4.93;;
19191;SDS011;9728;48.194;16.346;2023-12-28T02:31:18;7.20;;;4.87;;
19191;SDS011;9728;48.194;16.346;2023-12-28T02:36:28;6.30;;;4.63;;
19191;SDS011;9728;48.194;16.346;2023-12-28T02:41:33;6.63;;;4.50;;
19191;SDS011;9728;48.194;16.346;2023-12-28T02:46:38;7.07;;;4.93;;
19191;SDS011;9728;48.194;16.346;2023-12-28T02:51:41;9.67;;;5.10;;
19191;SDS011;9728;48.194;16.346;2023-12-28T02:56:46;6.23;;;4.17;;
19191;SDS011;9728;48.194;16.346;2023-12-28T03:01:49;6.50;;;4.50;;
19191;SDS011;9728;48.194;16.346;2023-12-28T03:06:52;6.83;;;4.57;;
19191;SDS011;9728;48.194;16.346;2023-12-28T03:11:57;8.57;;;4.77;;
19191;SDS011;9728;48.194;16.346;2023-12-28T03:17:01;8.10;;;4.35;;
19191;SDS011;9728;48.194;16.346;2023-12-28T03:22:04;7.73;;;4.87;;
19191;SDS011;9728;48.194;16.346;2023-12-28T03:27:09;9.07;;;4.73;;
19191;SDS011;9728;48.194;16.346;2023-12-28T03:32:13;10.30;;;5.00;;
19191;SDS011;9728;48.194;16.346;2023-12-28T03:37:17;8.67;;;4.97;;
19191;SDS011;9728;48.194;16.346;2023-12-28T03:42:22;7.20;;;4.40;;
19191;SDS011;9728;48.194;16.346;2023-12-28T03:47:25;9.80;;;5.63;;
19191;SDS011;9728;48.194;16.346;2023-12-28T03:52:29;10.37;;;5.43;;
19191;SDS011;9728;48.194;16.346;2023-12-28T03:57:33;7.87;;;5.47;;
19191;SDS011;9728;48.194;16.346;2023-12-28T04:02:37;8.60;;;5.67;;
19191;SDS011;9728;48.194;16.346;2023-12-28T04:07:40;6.33;;;4.40;;
19191;SDS011;9728;48.194;16.346;2023-12-28T04:12:48;9.27;;;4.93;;
19191;SDS011;9728;48.194;16.346;2023-12-28T04:17:51;9.60;;;5.30;;
19191;SDS011;9728;48.194;16.346;2023-12-28T04:22:55;8.53;;;5.17;;
19191;SDS011;9728;48.194;16.346;2023-12-28T04:27:59;8.13;;;4.90;;
19191;SDS011;9728;48.194;16.346;2023-12-28T04:33:04;11.23;;;5.57;;
19191;SDS011;9728;48.194;16.346;2023-12-28T04:38:08;9.83;;;5.40;;
19191;SDS011;9728;48.194;16.346;2023-12-28T04:43:13;8.90;;;4.60;;
19191;SDS011;9728;48.194;16.346;2023-12-28T04:48:16;12.20;;;6.33;;
19191;SDS011;9728;48.194;16.346;2023-12-28T04:53:22;10.27;;;5.97;;
19191;SDS011;9728;48.194;16.346;2023-12-28T04:58:28;13.57;;;5.43;;
19191;SDS011;9728;48.194;16.346;2023-12-28T05:03:31;9.13;;;5.07;;
19191;SDS011;9728;48.194;16.346;2023-12-28T05:08:35;9.50;;;4.97;;
19191;SDS011;9728;48.194;16.346;2023-12-28T05:13:40;11.10;;;5.33;;
19191;SDS011;9728;48.194;16.346;2023-12-28T05:18:43;9.67;;;5.17;;
19191;SDS011;9728;48.194;16.346;2023-12-28T05:23:47;9.00;;;5.47;;
19191;SDS011;9728;48.194;16.346;2023-12-28T05:28:51;10.77;;;5.67;;
19191;SDS011;9728;48.194;16.346;2023-12-28T05:33:54;8.90;;;5.17;;
19191;SDS011;9728;48.194;16.346;2023-12-28T05:39:00;9.97;;;5.13;;
19191;SDS011;9728;48.194;16.346;2023-12-28T05:44:05;9.07;;;5.00;;
19191;SDS011;9728;48.194;16.346;2023-12-28T05:49:08;8.47;;;4.70;;
19191;SDS011;9728;48.194;16.346;2023-12-28T05:54:12;11.33;;;5.93;;
19191;SDS011;9728;48.194;16.346;2023-12-28T05:59:17;7.87;;;4.83;;
19191;SDS011;9728;48.194;16.346;2023-12-28T06:04:20;11.70;;;6.40;;
19191;SDS011;9728;48.194;16.346;2023-12-28T06:09:23;11.10;;;6.07;;
19191;SDS011;9728;48.194;16.346;2023-12-28T06:14:30;10.33;;;5.33;;
19191;SDS011;9728;48.194;16.346;2023-12-28T06:19:33;10.53;;;5.70;;
19191;SDS011;9728;48.194;16.346;2023-12-28T06:24:37;9.30;;;5.37;;
19191;SDS011;9728;48.194;16.346;2023-12-28T06:29:43;9.57;;;5.53;;
19191;SDS011;9728;48.194;16.346;2023-12-28T06:34:46;9.60;;;5.27;;
19191;SDS011;9728;48.194;16.346;2023-12-28T06:39:50;7.27;;;5.00;;
19191;SDS011;9728;48.194;16.346;2023-12-28T06:44:55;10.63;;;5.83;;
19191;SDS011;9728;48.194;16.346;2023-12-28T06:49:58;10.33;;;5.83;;
19191;SDS011;9728;48.194;16.346;2023-12-28T06:55:02;11.47;;;6.30;;
19191;SDS011;9728;48.194;16.346;2023-12-28T07:00:08;9.67;;;6.03;;
19191;SDS011;9728;48.194;16.346;2023-12-28T07:05:12;10.10;;;5.77;;
19191;SDS011;9728;48.194;16.346;2023-12-28T07:10:15;12.57;;;5.40;;
19191;SDS011;9728;48.194;16.346;2023-12-28T07:15:20;9.07;;;5.07;;
19191;SDS011;9728;48.194;16.346;2023-12-28T07:20:24;9.47;;;5.70;;
19191;SDS011;9728;48.194;16.346;2023-12-28T07:25:28;10.80;;;5.57;;
19191;SDS011;9728;48.194;16.346;2023-12-28T07:30:32;9.10;;;4.83;;
19191;SDS011;9728;48.194;16.346;2023-12-28T07:35:36;10.17;;;5.37;;
19191;SDS011;9728;48.194;16.346;2023-12-28T07:40:39;9.47;;;5.17;;
19191;SDS011;9728;48.194;16.346;2023-12-28T07:45:44;9.10;;;5.23;;
19191;SDS011;9728;48.194;16.346;2023-12-28T07:50:47;12.47;;;5.90;;
19191;SDS011;9728;48.194;16.346;2023-12-28T07:55:53;10.83;;;5.50;;
19191;SDS011;9728;48.194;16.346;2023-12-28T08:00:59;12.13;;;6.13;;
19191;SDS011;9728;48.194;16.346;2023-12-28T08:06:03;15.20;;;6.22;;
19191;SDS011;9728;48.194;16.346;2023-12-28T08:11:06;11.00;;;5.70;;
19191;SDS011;9728;48.194;16.346;2023-12-28T08:16:11;12.40;;;6.07;;
19191;SDS011;9728;48.194;16.346;2023-12-28T08:21:14;10.27;;;4.97;;
19191;SDS011;9728;48.194;16.346;2023-12-28T08:26:18;13.63;;;6.10;;
19191;SDS011;9728;48.194;16.346;2023-12-28T08:31:22;11.07;;;5.17;;
19191;SDS011;9728;48.194;16.346;2023-12-28T08:36:26;12.67;;;6.03;;
19191;SDS011;9728;48.194;16.346;2023-12-28T08:41:29;9.07;;;5.17;;
19191;SDS011;9728;48.194;16.346;2023-12-28T08:46:34;9.00;;;4.70;;
19191;SDS011;9728;48.194;16.346;2023-12-28T08:51:37;8.50;;;4.73;;
19191;SDS011;9728;48.194;16.346;2023-12-28T08:56:45;10.30;;;4.70;;
19191;SDS011;9728;48.194;16.346;2023-12-28T09:01:55;9.30;;;4.60;;
19191;SDS011;9728;48.194;16.346;2023-12-28T09:06:58;8.43;;;4.83;;
19191;SDS011;9728;48.194;16.346;2023-12-28T09:12:02;10.63;;;5.00;;
19191;SDS011;9728;48.194;16.346;2023-12-28T09:17:07;9.53;;;4.03;;
19191;SDS011;9728;48.194;16.346;2023-12-28T09:22:11;9.00;;;4.70;;
19191;SDS011;9728;48.194;16.346;2023-12-28T09:27:14;8.83;;;4.37;;
19191;SDS011;9728;48.194;16.346;2023-12-28T09:32:19;8.60;;;4.47;;
19191;SDS011;9728;48.194;16.346;2023-12-28T09:37:23;10.83;;;5.37;;
19191;SDS011;9728;48.194;16.346;2023-12-28T09:42:29;9.27;;;4.43;;
19191;SDS011;9728;48.194;16.346;2023-12-28T09:47:39;9.60;;;5.07;;
19191;SDS011;9728;48.194;16.346;2023-12-28T09:52:42;10.90;;;5.27;;
19191;SDS011;9728;48.194;16.346;2023-12-28T09:57:46;10.85;;;5.47;;
19191;SDS011;9728;48.194;16.346;2023-12-28T10:02:51;9.33;;;5.17;;
19191;SDS011;9728;48.194;16.346;2023-12-28T10:07:55;7.20;;;4.17;;
19191;SDS011;9728;48.194;16.346;2023-12-28T10:12:59;9.03;;;4.70;;
19191;SDS011;9728;48.194;16.346;2023-12-28T10:18:05;7.90;;;4.17;;
19191;SDS011;9728;48.194;16.346;2023-12-28T10:23:09;6.73;;;3.73;;
19191;SDS011;9728;48.194;16.346;2023-12-28T10:28:13;8.20;;;4.27;;
19191;SDS011;9728;48.194;16.346;2023-12-28T10:33:21;10.10;;;5.10;;
19191;SDS011;9728;48.194;16.346;2023-12-28T10:38:25;9.03;;;4.67;;
19191;SDS011;9728;48.194;16.346;2023-12-28T10:43:36;8.80;;;4.57;;
19191;SDS011;9728;48.194;16.346;2023-12-28T10:48:49;6.70;;;2.70;;
19191;SDS011;9728;48.194;16.346;2023-12-28T10:53:59;10.25;;;5.03;;
19191;SDS011;9728;48.194;16.346;2023-12-28T10:59:20;7.88;;;3.78;;
19191;SDS011;9728;48.194;16.346;2023-12-28T11:04:34;8.18;;;4.40;;
19191;SDS011;9728;48.194;16.346;2023-12-28T11:09:44;10.43;;;4.97;;
19191;SDS011;9728;48.194;16.346;2023-12-28T11:14:49;8.65;;;4.97;;
19191;SDS011;9728;48.194;16.346;2023-12-28T11:19:55;8.73;;;4.97;;
19191;SDS011;9728;48.194;16.346;2023-12-28T11:24:59;10.52;;;4.43;;
19191;SDS011;9728;48.194;16.346;2023-12-28T11:30:03;8.23;;;4.68;;
19191;SDS011;9728;48.194;16.346;2023-12-28T11:35:09;9.88;;;4.68;;
19191;SDS011;9728;48.194;16.346;2023-12-28T11:40:16;9.48;;;4.75;;
19191;SDS011;9728;48.194;16.346;2023-12-28T11:45:23;7.47;;;4.10;;
19191;SDS011;9728;48.194;16.346;2023-12-28T11:50:29;11.15;;;5.43;;
19191;SDS011;9728;48.194;16.346;2023-12-28T11:55:33;8.43;;;4.90;;
19191;SDS011;9728;48.194;16.346;2023-12-28T12:00:36;8.30;;;4.70;;
19191;SDS011;9728;48.194;16.346;2023-12-28T12:05:41;10.27;;;5.05;;
19191;SDS011;9728;48.194;16.346;2023-12-28T12:10:46;8.60;;;4.65;;
19191;SDS011;9728;48.194;16.346;2023-12-28T12:15:50;8.18;;;4.22;;
19191;SDS011;9728;48.194;16.346;2023-12-28T12:20:59;9.10;;;5.00;;
19191;SDS011;9728;48.194;16.346;2023-12-28T12:26:07;8.65;;;4.45;;
19191;SDS011;9728;48.194;16.346;2023-12-28T12:31:10;8.00;;;3.93;;
19191;SDS011;9728;48.194;16.346;2023-12-28T12:36:16;9.03;;;4.73;;
19191;SDS011;9728;48.194;16.346;2023-12-28T12:41:20;7.97;;;4.07;;
19191;SDS011;9728;48.194;16.346;2023-12-28T12:46:24;7.00;;;3.97;;
19191;SDS011;9728;48.194;16.346;2023-12-28T12:51:29;7.47;;;4.80;;
19191;SDS011;9728;48.194;16.346;2023-12-28T12:56:32;6.87;;;4.10;;
19191;SDS011;9728;48.194;16.346;2023-12-28T13:01:36;7.87;;;4.23;;
19191;SDS011;9728;48.194;16.346;2023-12-28T13:06:41;9.07;;;4.53;;
19191;SDS011;9728;48.194;16.346;2023-12-28T13:11:44;6.97;;;4.30;;
19191;SDS011;9728;48.194;16.346;2023-12-28T13:16:51;6.83;;;3.67;;
19191;SDS011;9728;48.194;16.346;2023-12-28T13:22:00;7.23;;;4.00;;
19191;SDS011;9728;48.194;16.346;2023-12-28T13:27:04;7.43;;;3.83;;
19191;SDS011;9728;48.194;16.346;2023-12-28T13:32:08;5.67;;;3.13;;
19191;SDS011;9728;48.194;16.346;2023-12-28T13:37:13;5.20;;;3.27;;
19191;SDS011;9728;48.194;16.346;2023-12-28T13:42:16;6.10;;;3.50;;
19191;SDS011;9728;48.194;16.346;2023-12-28T13:47:19;6.40;;;3.47;;
19191;SDS011;9728;48.194;16.346;2023-12-28T13:52:24;6.93;;;3.63;;
19191;SDS011;9728;48.194;16.346;2023-12-28T13:57:27;6.03;;;3.57;;
19191;SDS011;9728;48.194;16.346;2023-12-28T14:02:32;6.07;;;3.43;;
19191;SDS011;9728;48.194;16.346;2023-12-28T14:07:37;7.53;;;4.53;;
19191;SDS011;9728;48.194;16.346;2023-12-28T14:12:40;7.90;;;4.70;;
19191;SDS011;9728;48.194;16.346;2023-12-28T14:17:43;7.33;;;4.60;;
19191;SDS011;9728;48.194;16.346;2023-12-28T14:22:49;6.70;;;3.83;;
19191;SDS011;9728;48.194;16.346;2023-12-28T14:27:52;7.80;;;4.50;;
19191;SDS011;9728;48.194;16.346;2023-12-28T14:32:56;7.37;;;4.23;;
19191;SDS011;9728;48.194;16.346;2023-12-28T14:38:03;7.83;;;3.80;;
19191;SDS011;9728;48.194;16.346;2023-12-28T14:43:07;7.13;;;4.30;;
19191;SDS011;9728;48.194;16.346;2023-12-28T14:48:10;9.03;;;4.63;;
19191;SDS011;9728;48.194;16.346;2023-12-28T14:53:15;10.70;;;5.37;;
19191;SDS011;9728;48.194;16.346;2023-12-28T14:58:19;7.13;;;4.20;;
19191;SDS011;9728;48.194;16.346;2023-12-28T15:03:23;7.73;;;4.27;;
19191;SDS011;9728;48.194;16.346;2023-12-28T15:08:28;8.10;;;4.87;;
19191;SDS011;9728;48.194;16.346;2023-12-28T15:13:32;6.83;;;4.13;;
19191;SDS011;9728;48.194;16.346;2023-12-28T15:18:36;7.33;;;4.40;;
19191;SDS011;9728;48.194;16.346;2023-12-28T15:23:43;8.10;;;4.60;;
19191;SDS011;9728;48.194;16.346;2023-12-28T15:28:47;9.50;;;5.77;;
19191;SDS011;9728;48.194;16.346;2023-12-28T15:33:50;9.70;;;5.27;;
19191;SDS011;9728;48.194;16.346;2023-12-28T15:38:56;11.00;;;5.40;;
19191;SDS011;9728;48.194;16.346;2023-12-28T15:43:59;8.73;;;4.73;;
19191;SDS011;9728;48.194;16.346;2023-12-28T15:49:02;8.00;;;4.70;;
19191;SDS011;9728;48.194;16.346;2023-12-28T15:54:07;10.13;;;5.13;;
19191;SDS011;9728;48.194;16.346;2023-12-28T15:59:11;8.80;;;4.87;;
19191;SDS011;9728;48.194;16.346;2023-12-28T16:04:14;10.93;;;4.93;;
19191;SDS011;9728;48.194;16.346;2023-12-28T16:09:19;9.33;;;5.43;;
19191;SDS011;9728;48.194;16.346;2023-12-28T16:14:23;8.17;;;4.93;;
19191;SDS011;9728;48.194;16.346;2023-12-28T16:19:27;10.63;;;5.90;;
19191;SDS011;9728;48.194;16.346;2023-12-28T16:24:32;10.03;;;6.03;;
19191;SDS011;9728;48.194;16.346;2023-12-28T16:29:36;10.60;;;5.30;;
19191;SDS011;9728;48.194;16.346;2023-12-28T16:34:39;10.67;;;5.97;;
19191;SDS011;9728;48.194;16.346;2023-12-28T16:39:44;10.70;;;5.77;;
19191;SDS011;9728;48.194;16.346;2023-12-28T16:44:47;9.63;;;5.53;;
19191;SDS011;9728;48.194;16.346;2023-12-28T16:49:51;8.87;;;5.47;;
19191;SDS011;9728;48.194;16.346;2023-12-28T16:54:55;8.57;;;5.13;;
19191;SDS011;9728;48.194;16.346;2023-12-28T16:59:59;7.40;;;4.37;;
19191;SDS011;9728;48.194;16.346;2023-12-28T17:05:12;8.87;;;4.97;;
19191;SDS011;9728;48.194;16.346;2023-12-28T17:10:18;10.67;;;5.97;;
19191;SDS011;9728;48.194;16.346;2023-12-28T17:15:25;7.43;;;4.73;;
19191;SDS011;9728;48.194;16.346;2023-12-28T17:20:29;8.20;;;5.20;;
19191;SDS011;9728;48.194;16.346;2023-12-28T17:25:36;7.80;;;4.93;;
19191;SDS011;9728;48.194;16.346;2023-12-28T17:30:45;8.77;;;4.83;;
19191;SDS011;9728;48.194;16.346;2023-12-28T17:35:49;6.27;;;4.07;;
19191;SDS011;9728;48.194;16.346;2023-12-28T17:40:55;7.30;;;4.70;;
19191;SDS011;9728;48.194;16.346;2023-12-28T17:46:00;5.93;;;4.00;;
19191;SDS011;9728;48.194;16.346;2023-12-28T17:51:11;8.10;;;4.80;;
19191;SDS011;9728;48.194;16.346;2023-12-28T17:56:17;9.90;;;5.80;;
19191;SDS011;9728;48.194;16.346;2023-12-28T18:01:20;8.97;;;5.57;;
19191;SDS011;9728;48.194;16.346;2023-12-28T18:06:25;8.23;;;4.97;;
19191;SDS011;9728;48.194;16.346;2023-12-28T18:11:30;8.70;;;5.57;;
19191;SDS011;9728;48.194;16.346;2023-12-28T18:16:34;6.47;;;4.53;;
19191;SDS011;9728;48.194;16.346;2023-12-28T18:21:37;9.60;;;5.67;;
19191;SDS011;9728;48.194;16.346;2023-12-28T18:26:46;9.40;;;5.50;;
19191;SDS011;9728;48.194;16.346;2023-12-28T18:31:49;9.97;;;6.03;;
19191;SDS011;9728;48.194;16.346;2023-12-28T18:36:53;11.73;;;6.47;;
19191;SDS011;9728;48.194;16.346;2023-12-28T18:42:00;9.57;;;5.90;;
19191;SDS011;9728;48.194;16.346;2023-12-28T18:47:04;11.87;;;6.10;;
19191;SDS011;9728;48.194;16.346;2023-12-28T18:52:09;10.10;;;5.73;;
19191;SDS011;9728;48.194;16.346;2023-12-28T18:57:15;9.07;;;5.17;;
19191;SDS011;9728;48.194;16.346;2023-12-28T19:02:20;9.90;;;5.70;;
19191;SDS011;9728;48.194;16.346;2023-12-28T19:07:25;9.33;;;5.50;;
19191;SDS011;9728;48.194;16.346;2023-12-28T19:12:32;8.53;;;5.10;;
19191;SDS011;9728;48.194;16.346;2023-12-28T19:17:36;8.13;;;4.33;;
19191;SDS011;9728;48.194;16.346;2023-12-28T19:22:43;8.00;;;5.43;;
19191;SDS011;9728;48.194;16.346;2023-12-28T19:27:50;9.20;;;5.27;;
19191;SDS011;9728;48.194;16.346;2023-12-28T19:32:54;8.93;;;5.37;;
19191;SDS011;9728;48.194;16.346;2023-12-28T19:37:59;6.27;;;4.20;;
19191;SDS011;9728;48.194;16.346;2023-12-28T19:43:06;9.40;;;5.47;;
19191;SDS011;9728;48.194;16.346;2023-12-28T19:48:12;8.00;;;4.97;;
19191;SDS011;9728;48.194;16.346;2023-12-28T19:53:17;9.00;;;5.20;;
19191;SDS011;9728;48.194;16.346;2023-12-28T19:58:23;8.13;;;5.07;;
19191;SDS011;9728;48.194;16.346;2023-12-28T20:03:27;9.57;;;5.37;;
19191;SDS011;9728;48.194;16.346;2023-12-28T20:08:32;10.87;;;6.00;;
19191;SDS011;9728;48.194;16.346;2023-12-28T20:13:41;11.47;;;6.63;;
19191;SDS011;9728;48.194;16.346;2023-12-28T20:18:46;10.97;;;6.90;;
19191;SDS011;9728;48.194;16.346;2023-12-28T20:23:51;11.53;;;6.60;;
19191;SDS011;9728;48.194;16.346;2023-12-28T20:28:56;10.97;;;6.73;;
19191;SDS011;9728;48.194;16.346;2023-12-28T20:34:00;11.10;;;5.53;;
19191;SDS011;9728;48.194;16.346;2023-12-28T20:39:05;7.87;;;4.83;;
19191;SDS011;9728;48.194;16.346;2023-12-28T20:44:12;10.30;;;6.20;;
19191;SDS011;9728;48.194;16.346;2023-12-28T20:49:20;8.60;;;5.43;;
19191;SDS011;9728;48.194;16.346;2023-12-28T20:54:43;9.40;;;5.60;;
19191;SDS011;9728;48.194;16.346;2023-12-28T20:59:50;9.20;;;5.57;;
19191;SDS011;9728;48.194;16.346;2023-12-28T21:04:55;9.37;;;5.87;;
19191;SDS011;9728;48.194;16.346;2023-12-28T21:09:59;10.17;;;6.43;;
19191;SDS011;9728;48.194;16.346;2023-12-28T21:15:05;10.17;;;5.77;;
19191;SDS011;9728;48.194;16.346;2023-12-28T21:20:10;9.63;;;6.13;;
19191;SDS011;9728;48.194;16.346;2023-12-28T21:25:13;10.00;;;6.47;;
19191;SDS011;9728;48.194;16.346;2023-12-28T21:30:18;12.90;;;6.80;;
19191;SDS011;9728;48.194;16.346;2023-12-28T21:35:22;9.33;;;5.87;;
19191;SDS011;9728;48.194;16.346;2023-12-28T21:40:25;10.30;;;6.10;;
19191;SDS011;9728;48.194;16.346;2023-12-28T21:45:31;10.80;;;7.20;;
19191;SDS011;9728;48.194;16.346;2023-12-28T21:50:34;10.70;;;6.53;;
19191;SDS011;9728;48.194;16.346;2023-12-28T21:55:38;11.30;;;6.67;;
19191;SDS011;9728;48.194;16.346;2023-12-28T22:00:43;9.10;;;6.07;;
19191;SDS011;9728;48.194;16.346;2023-12-28T22:05:47;9.87;;;5.60;;
19191;SDS011;9728;48.194;16.346;2023-12-28T22:10:50;7.90;;;5.20;;
19191;SDS011;9728;48.194;16.346;2023-12-28T22:15:55;6.37;;;5.07;;
19191;SDS011;9728;48.194;16.346;2023-12-28T22:21:00;7.23;;;5.27;;
19191;SDS011;9728;48.194;16.346;2023-12-28T22:26:03;6.97;;;4.93;;
19191;SDS011;9728;48.194;16.346;2023-12-28T22:31:08;7.33;;;4.77;;
19191;SDS011;9728;48.194;16.346;2023-12-28T22:36:12;8.97;;;5.63;;
19191;SDS011;9728;48.194;16.346;2023-12-28T22:41:15;7.37;;;5.17;;
19191;SDS011;9728;48.194;16.346;2023-12-28T22:46:20;6.43;;;4.87;;
19191;SDS011;9728;48.194;16.346;2023-12-28T22:51:23;8.70;;;5.57;;
19191;SDS011;9728;48.194;16.346;2023-12-28T22:56:27;9.33;;;5.67;;
19191;SDS011;9728;48.194;16.346;2023-12-28T23:01:32;10.80;;;5.83;;
19191;SDS011;9728;48.194;16.346;2023-12-28T23:06:36;7.17;;;5.13;;
19191;SDS011;9728;48.194;16.346;2023-12-28T23:11:39;8.80;;;5.20;;
19191;SDS011;9728;48.194;16.346;2023-12-28T23:16:44;7.17;;;5.23;;
19191;SDS011;9728;48.194;16.346;2023-12-28T23:21:48;9.17;;;5.33;;
19191;SDS011;9728;48.194;16.346;2023-12-28T23:26:52;9.13;;;5.30;;
19191;SDS011;9728;48.194;16.346;2023-12-28T23:31:57;10.60;;;6.73;;
19191;SDS011;9728;48.194;16.346;2023-12-28T23:37:01;7.73;;;5.17;;
19191;SDS011;9728;48.194;16.346;2023-12-28T23:42:04;9.93;;;5.60;;
19191;SDS011;9728;48.194;16.346;2023-12-28T23:47:10;9.73;;;5.30;;
19191;SDS011;9728;48.194;16.346;2023-12-28T23:52:13;9.17;;;5.93;;
19191;SDS011;9728;48.194;16.346;2023-12-28T23:57:16;9.27;;;5.93;;
